ΕΜΥ, Εθνική Μετεωρολογική Υπηρεσία - Δελτία Καιρού, Προγνώσεις

ΑΕΡΟΝΑΥΤΙΛΙΑ

GREEK AIRPORTS CODES

TAF LGKY 230700Z NIL=

EUROPEAN AIRPORTS CODES

LFPO 231600Z 22010G22KT 180V260 9999 SCT029 FEW030CBSCT033TCU BKN260 07/04 Q0993 RESHRA TEMPO 21015G30KT SHRA=